createdAt,value
2019-04-21T00:05:18.820Z,14.30
2019-04-21T00:10:28.462Z,13.40
2019-04-21T00:15:24.139Z,13.27
2019-04-21T00:20:30.947Z,13.53
2019-04-21T00:25:46.056Z,12.97
2019-04-21T00:31:02.608Z,12.30
2019-04-21T00:35:57.719Z,11.50
2019-04-21T00:41:23.502Z,11.67
2019-04-21T00:46:28.002Z,11.93
2019-04-21T00:51:49.821Z,10.87
2019-04-21T00:56:56.669Z,11.53
2019-04-21T01:01:56.611Z,10.10
2019-04-21T01:07:11.177Z,10.70
2019-04-21T01:12:20.547Z,10.73
2019-04-21T01:17:21.780Z,10.70
2019-04-21T01:22:13.297Z,10.70
2019-04-21T01:27:43.886Z,10.33
2019-04-21T01:32:53.144Z,10.90
2019-04-21T01:38:04.708Z,10.53
2019-04-21T01:43:11.885Z,10.23
2019-04-21T01:48:22.906Z,10.07
2019-04-21T01:53:53.300Z,10.07
2019-04-21T01:58:48.182Z,9.77
2019-04-21T02:04:18.000Z,10.17
2019-04-21T02:09:14.862Z,9.63
2019-04-21T02:14:33.277Z,9.83
2019-04-21T02:19:32.587Z,9.60
2019-04-21T02:24:49.623Z,10.07
2019-04-21T02:29:55.971Z,9.90
2019-04-21T02:40:25.498Z,9.43
2019-04-21T02:45:29.638Z,9.07
2019-04-21T02:50:42.995Z,8.67
2019-04-21T02:55:43.738Z,8.63
2019-04-21T03:01:23.510Z,8.53
2019-04-21T03:06:43.801Z,8.47
2019-04-21T03:11:56.391Z,9.27
2019-04-21T03:16:57.667Z,9.50
2019-04-21T03:22:18.264Z,8.27
2019-04-21T03:47:59.070Z,8.20
2019-04-21T03:53:03.814Z,7.67
2019-04-21T04:03:52.184Z,7.93
2019-04-21T04:24:38.906Z,7.93
2019-04-21T04:40:13.641Z,6.90
2019-04-21T04:45:41.678Z,7.43
2019-04-21T04:50:45.868Z,7.80
2019-04-21T05:01:02.435Z,7.30
2019-04-21T05:06:44.018Z,7.30
2019-04-21T05:17:03.937Z,7.87
2019-04-21T05:21:55.025Z,6.97
2019-04-21T05:26:58.421Z,7.40
2019-04-21T05:32:18.509Z,7.43
2019-04-21T05:37:43.264Z,8.37
2019-04-21T05:42:52.947Z,8.07
2019-04-21T05:48:28.298Z,8.20
2019-04-21T05:58:39.158Z,7.87
2019-04-21T06:03:54.984Z,8.47
2019-04-21T06:09:00.326Z,8.97
2019-04-21T06:14:08.285Z,8.50
2019-04-21T06:19:23.704Z,11.40
2019-04-21T06:24:21.831Z,7.60
2019-04-21T06:29:39.953Z,8.10
2019-04-21T06:35:04.326Z,7.83
2019-04-21T06:40:12.727Z,6.90
2019-04-21T06:45:10.323Z,6.33
2019-04-21T06:50:12.241Z,7.00
2019-04-21T06:55:20.548Z,6.47
2019-04-21T07:00:25.891Z,5.80
2019-04-21T07:05:44.064Z,5.77
2019-04-21T07:10:43.443Z,5.30
2019-04-21T07:15:57.131Z,4.93
2019-04-21T07:21:08.275Z,4.90
2019-04-21T07:26:13.727Z,4.50
2019-04-21T07:31:25.363Z,5.03
2019-04-21T07:36:43.299Z,5.07
2019-04-21T07:41:35.023Z,5.00
2019-04-21T07:46:41.699Z,4.33
2019-04-21T07:52:22.292Z,4.97
2019-04-21T07:57:23.517Z,4.73
2019-04-21T08:02:34.310Z,4.53
2019-04-21T08:07:56.039Z,4.20
2019-04-21T08:12:54.304Z,4.03
2019-04-21T08:18:09.270Z,4.70
2019-04-21T08:23:13.574Z,4.10
2019-04-21T08:28:20.483Z,4.20
2019-04-21T08:38:42.613Z,3.50
2019-04-21T08:43:52.001Z,3.20
2019-04-21T08:49:02.607Z,3.03
2019-04-21T08:54:16.528Z,2.87
2019-04-21T08:59:40.449Z,3.70
2019-04-21T09:04:48.070Z,3.00
2019-04-21T09:09:55.831Z,3.30
2019-04-21T09:15:04.766Z,3.47
2019-04-21T09:20:16.982Z,3.07
2019-04-21T09:25:26.951Z,3.20
2019-04-21T09:30:12.849Z,3.37
2019-04-21T09:35:22.235Z,3.37
2019-04-21T09:40:34.614Z,3.67
2019-04-21T09:45:38.546Z,3.77
2019-04-21T09:50:46.008Z,3.70
2019-04-21T09:55:58.204Z,4.10
2019-04-21T10:01:11.606Z,3.83
2019-04-21T10:06:13.953Z,3.60
2019-04-21T10:11:21.078Z,3.42
2019-04-21T10:16:59.677Z,3.62
2019-04-21T10:22:06.137Z,3.70
2019-04-21T10:27:14.779Z,4.10
2019-04-21T10:32:25.192Z,3.77
2019-04-21T10:37:44.132Z,3.10
2019-04-21T10:42:40.603Z,3.50
2019-04-21T10:47:49.361Z,3.65
2019-04-21T10:53:04.845Z,4.12
2019-04-21T10:58:16.173Z,3.67
2019-04-21T11:03:58.495Z,3.75
2019-04-21T11:09:10.881Z,3.12
2019-04-21T11:14:18.373Z,3.90
2019-04-21T11:19:25.691Z,3.77
2019-04-21T11:24:33.337Z,3.52
2019-04-21T11:29:41.361Z,3.77
2019-04-21T11:34:49.337Z,3.80
2019-04-21T11:40:03.345Z,3.98
2019-04-21T11:45:06.551Z,2.98
2019-04-21T11:50:14.968Z,3.22
2019-04-21T11:55:22.929Z,4.47
2019-04-21T12:00:31.545Z,2.85
2019-04-21T12:05:39.816Z,3.22
2019-04-21T12:10:47.365Z,3.02
2019-04-21T12:15:54.911Z,3.10
2019-04-21T12:21:03.242Z,2.98
2019-04-21T12:26:10.878Z,3.40
2019-04-21T12:31:31.784Z,2.80
2019-04-21T12:36:40.009Z,3.20
2019-04-21T12:41:48.777Z,2.95
2019-04-21T12:46:56.283Z,2.80
2019-04-21T12:52:04.314Z,2.50
2019-04-21T12:57:11.795Z,2.67
2019-04-21T13:02:19.886Z,2.67
2019-04-21T13:07:27.727Z,2.75
2019-04-21T13:12:35.312Z,2.80
2019-04-21T13:17:45.767Z,2.70
2019-04-21T13:22:52.383Z,2.50
2019-04-21T13:28:00.927Z,2.20
2019-04-21T13:33:09.175Z,2.40
2019-04-21T13:38:26.986Z,2.65
2019-04-21T13:43:29.134Z,3.00
2019-04-21T13:48:37.007Z,3.52
2019-04-21T13:53:47.031Z,2.98
2019-04-21T13:58:54.364Z,2.60
2019-04-21T14:04:02.111Z,3.20
2019-04-21T14:09:13.663Z,2.80
2019-04-21T14:14:21.037Z,2.80
2019-04-21T14:19:28.358Z,2.70
2019-04-21T14:24:37.093Z,3.08
2019-04-21T14:29:45.900Z,2.67
2019-04-21T14:34:54.043Z,2.70
2019-04-21T14:40:07.489Z,2.80
2019-04-21T14:45:14.529Z,3.27
2019-04-21T14:50:40.020Z,2.67
2019-04-21T14:55:49.173Z,3.40
2019-04-21T15:01:08.375Z,2.98
2019-04-21T15:06:15.798Z,2.92
2019-04-21T15:11:24.218Z,2.98
2019-04-21T15:16:33.234Z,2.77
2019-04-21T15:21:42.517Z,3.08
2019-04-21T15:26:52.737Z,3.72
2019-04-21T15:31:58.920Z,3.00
2019-04-21T15:37:08.062Z,3.25
2019-04-21T15:42:16.727Z,3.30
2019-04-21T15:47:24.192Z,2.90
2019-04-21T15:52:32.201Z,3.00
2019-04-21T15:57:58.972Z,3.10
2019-04-21T16:03:06.870Z,3.17
2019-04-21T16:08:14.340Z,2.90
2019-04-21T16:13:23.627Z,3.47
2019-04-21T16:18:32.157Z,2.80
2019-04-21T16:23:42.482Z,2.50
2019-04-21T16:28:51.245Z,3.30
2019-04-21T16:34:01.116Z,3.10
2019-04-21T16:39:11.923Z,3.00
2019-04-21T16:44:19.187Z,2.77
2019-04-21T16:49:27.502Z,3.07
2019-04-21T16:54:35.685Z,3.30
2019-04-21T16:59:48.476Z,3.17
2019-04-21T17:04:56.271Z,2.93
2019-04-21T17:10:04.534Z,2.77
2019-04-21T17:15:28.283Z,3.00
2019-04-21T17:20:34.196Z,3.33
2019-04-21T17:25:30.177Z,3.63
2019-04-21T17:30:37.577Z,4.40
2019-04-21T17:35:44.974Z,3.80
2019-04-21T17:40:53.744Z,3.00
2019-04-21T17:46:02.794Z,2.93
2019-04-21T17:51:35.273Z,3.10
2019-04-21T17:57:07.521Z,2.77
2019-04-21T18:02:12.999Z,3.30
2019-04-21T18:07:31.519Z,3.37
2019-04-21T18:12:40.043Z,3.03
2019-04-21T18:17:28.766Z,3.97
2019-04-21T18:23:15.408Z,5.57
2019-04-21T18:28:16.642Z,8.90
2019-04-21T18:33:33.121Z,13.30
2019-04-21T18:39:00.049Z,22.63
2019-04-21T18:44:21.347Z,23.80
2019-04-21T18:49:09.226Z,23.37
2019-04-21T18:54:37.143Z,24.20
2019-04-21T18:59:37.308Z,26.20
2019-04-21T19:04:41.334Z,26.63
2019-04-21T19:15:15.999Z,24.37
2019-04-21T19:20:29.495Z,23.50
2019-04-21T19:25:41.365Z,43.73
2019-04-21T19:30:56.474Z,22.53
2019-04-21T19:35:41.422Z,21.30
2019-04-21T19:41:03.432Z,20.30
2019-04-21T19:46:14.071Z,22.63
2019-04-21T19:51:24.487Z,24.87
2019-04-21T19:56:19.505Z,24.77
2019-04-21T20:01:27.678Z,23.40
2019-04-21T20:06:48.916Z,20.80
2019-04-21T20:12:02.860Z,19.83
2019-04-21T20:17:08.911Z,18.80
2019-04-21T20:22:09.217Z,18.70
2019-04-21T20:27:30.821Z,16.50
2019-04-21T20:32:54.988Z,18.30
2019-04-21T20:37:47.930Z,16.47
2019-04-21T20:42:58.558Z,17.10
2019-04-21T20:47:54.605Z,14.87
2019-04-21T20:53:19.649Z,15.27
2019-04-21T20:58:30.892Z,14.70
2019-04-21T21:03:39.337Z,15.03
2019-04-21T21:08:44.636Z,13.90
2019-04-21T21:14:05.971Z,15.27
2019-04-21T21:19:18.136Z,13.90
2019-04-21T21:24:11.050Z,15.33
2019-04-21T21:29:25.326Z,14.97
2019-04-21T21:34:34.513Z,15.13
2019-04-21T21:39:49.184Z,13.57
2019-04-21T21:44:35.267Z,13.10
2019-04-21T21:49:55.432Z,11.27
2019-04-21T21:54:51.900Z,9.03
2019-04-21T22:00:05.685Z,9.47
2019-04-21T22:05:16.772Z,9.30
2019-04-21T22:10:21.273Z,10.37
2019-04-21T22:15:32.019Z,10.97
2019-04-21T22:20:56.559Z,10.90
2019-04-21T22:25:47.522Z,11.03
2019-04-21T22:30:56.518Z,10.03
2019-04-21T22:36:18.174Z,9.70
2019-04-21T22:41:26.340Z,9.57
2019-04-21T22:46:24.466Z,9.53
2019-04-21T22:51:37.450Z,9.47
2019-04-21T22:56:50.392Z,10.60
2019-04-21T23:01:50.804Z,9.90
2019-04-21T23:07:02.943Z,9.23
2019-04-21T23:12:08.228Z,9.10
2019-04-21T23:17:32.339Z,9.30
2019-04-21T23:22:56.890Z,8.93
2019-04-21T23:27:53.879Z,9.10
2019-04-21T23:32:51.225Z,9.07
2019-04-21T23:37:58.668Z,9.30
2019-04-21T23:43:09.636Z,9.33
2019-04-21T23:48:26.067Z,9.03
2019-04-21T23:53:21.501Z,8.63
2019-04-21T23:58:32.630Z,8.27
